sensor_id;sensor_type;location;lat;lon;timestamp;pressure;altitude;pressure_sealevel;temperature;humidity
50057;BME280;36875;49.468;11.200;2022-12-18T00:01:28;99123.00;;;23.78;32.38
50057;BME280;36875;49.468;11.200;2022-12-18T00:03:56;99139.03;;;23.90;32.47
50057;BME280;36875;49.468;11.200;2022-12-18T00:06:23;99160.59;;;23.96;32.29
50057;BME280;36875;49.468;11.200;2022-12-18T00:08:50;99159.38;;;23.75;32.67
50057;BME280;36875;49.468;11.200;2022-12-18T00:11:17;99166.78;;;23.60;32.77
50057;BME280;36875;49.468;11.200;2022-12-18T00:13:44;99165.38;;;23.77;32.53
50057;BME280;36875;49.468;11.200;2022-12-18T00:16:11;99167.50;;;23.66;32.82
50057;BME280;36875;49.468;11.200;2022-12-18T00:18:37;99170.13;;;23.57;32.89
50057;BME280;36875;49.468;11.200;2022-12-18T00:21:04;99164.22;;;23.50;33.12
50057;BME280;36875;49.468;11.200;2022-12-18T00:23:34;99159.13;;;23.29;33.20
50057;BME280;36875;49.468;11.200;2022-12-18T00:26:01;99160.56;;;23.41;33.18
50057;BME280;36875;49.468;11.200;2022-12-18T00:28:27;99137.25;;;23.24;33.30
50057;BME280;36875;49.468;11.200;2022-12-18T00:30:59;99158.19;;;23.20;33.39
50057;BME280;36875;49.468;11.200;2022-12-18T00:33:25;99144.97;;;22.89;33.77
50057;BME280;36875;49.468;11.200;2022-12-18T00:35:50;99155.13;;;23.08;33.48
50057;BME280;36875;49.468;11.200;2022-12-18T00:38:16;99152.66;;;23.06;33.62
50057;BME280;36875;49.468;11.200;2022-12-18T00:40:41;99150.47;;;22.89;33.71
50057;BME280;36875;49.468;11.200;2022-12-18T00:43:08;99159.59;;;22.85;34.05
50057;BME280;36875;49.468;11.200;2022-12-18T00:45:34;99157.97;;;22.84;33.98
50057;BME280;36875;49.468;11.200;2022-12-18T00:47:59;99158.44;;;22.72;34.09
50057;BME280;36875;49.468;11.200;2022-12-18T00:50:25;99152.00;;;22.63;34.11
50057;BME280;36875;49.468;11.200;2022-12-18T00:52:51;99165.31;;;22.69;34.23
50057;BME280;36875;49.468;11.200;2022-12-18T00:55:17;99145.72;;;22.43;34.20
50057;BME280;36875;49.468;11.200;2022-12-18T00:57:42;99164.84;;;22.48;34.65
50057;BME280;36875;49.468;11.200;2022-12-18T01:00:12;99167.66;;;22.43;34.36
50057;BME280;36875;49.468;11.200;2022-12-18T01:02:38;99170.19;;;22.40;34.81
50057;BME280;36875;49.468;11.200;2022-12-18T01:05:04;99158.47;;;22.34;34.55
50057;BME280;36875;49.468;11.200;2022-12-18T01:07:30;99154.72;;;22.25;34.87
50057;BME280;36875;49.468;11.200;2022-12-18T01:09:55;99141.03;;;22.06;34.82
50057;BME280;36875;49.468;11.200;2022-12-18T01:12:21;99163.75;;;22.06;35.11
50057;BME280;36875;49.468;11.200;2022-12-18T01:14:46;99179.69;;;22.04;35.12
50057;BME280;36875;49.468;11.200;2022-12-18T01:17:13;99178.41;;;21.97;35.17
50057;BME280;36875;49.468;11.200;2022-12-18T01:19:39;99185.34;;;21.89;35.69
50057;BME280;36875;49.468;11.200;2022-12-18T01:22:05;99193.88;;;21.87;35.66
50057;BME280;36875;49.468;11.200;2022-12-18T01:24:30;99192.22;;;21.86;35.31
50057;BME280;36875;49.468;11.200;2022-12-18T01:26:56;99197.25;;;21.79;35.53
50057;BME280;36875;49.468;11.200;2022-12-18T01:29:22;99188.38;;;21.63;35.33
50057;BME280;36875;49.468;11.200;2022-12-18T01:31:48;99193.56;;;21.65;35.67
50057;BME280;36875;49.468;11.200;2022-12-18T01:34:15;99204.59;;;21.60;35.84
50057;BME280;36875;49.468;11.200;2022-12-18T01:36:40;99207.63;;;21.58;35.92
50057;BME280;36875;49.468;11.200;2022-12-18T01:39:09;99204.94;;;21.53;36.03
50057;BME280;36875;49.468;11.200;2022-12-18T01:41:35;99194.41;;;21.36;35.92
50057;BME280;36875;49.468;11.200;2022-12-18T01:47:33;99198.09;;;21.21;36.23
50057;BME280;36875;49.468;11.200;2022-12-18T01:50:05;99210.09;;;21.25;36.39
50057;BME280;36875;49.468;11.200;2022-12-18T01:52:33;99221.66;;;21.17;36.36
50057;BME280;36875;49.468;11.200;2022-12-18T01:54:59;99214.59;;;21.11;36.43
50057;BME280;36875;49.468;11.200;2022-12-18T01:57:27;99215.94;;;21.13;36.47
50057;BME280;36875;49.468;11.200;2022-12-18T01:59:57;99198.84;;;20.97;36.68
50057;BME280;36875;49.468;11.200;2022-12-18T02:02:26;99180.66;;;20.83;36.64
50057;BME280;36875;49.468;11.200;2022-12-18T02:04:52;99176.91;;;20.68;36.66
50057;BME280;36875;49.468;11.200;2022-12-18T02:07:23;99218.34;;;20.86;36.68
50057;BME280;36875;49.468;11.200;2022-12-18T02:09:55;99180.50;;;20.58;36.78
50057;BME280;36875;49.468;11.200;2022-12-18T02:12:25;99208.03;;;20.77;36.72
50057;BME280;36875;49.468;11.200;2022-12-18T02:14:58;99218.22;;;20.67;36.93
50057;BME280;36875;49.468;11.200;2022-12-18T02:17:30;99209.59;;;20.44;37.00
50057;BME280;36875;49.468;11.200;2022-12-18T02:20:13;99205.72;;;20.50;37.09
50057;BME280;36875;49.468;11.200;2022-12-18T02:22:53;99225.41;;;20.52;36.98
50057;BME280;36875;49.468;11.200;2022-12-18T02:25:32;99216.72;;;20.40;36.98
50057;BME280;36875;49.468;11.200;2022-12-18T02:28:06;99219.13;;;20.47;37.41
50057;BME280;36875;49.468;11.200;2022-12-18T02:30:35;99227.94;;;20.38;37.23
50057;BME280;36875;49.468;11.200;2022-12-18T02:33:04;99224.38;;;20.38;37.21
50057;BME280;36875;49.468;11.200;2022-12-18T02:35:32;99217.06;;;20.28;37.39
50057;BME280;36875;49.468;11.200;2022-12-18T02:38:00;99224.44;;;20.28;37.29
50057;BME280;36875;49.468;11.200;2022-12-18T02:40:27;99223.06;;;20.25;37.18
50057;BME280;36875;49.468;11.200;2022-12-18T02:42:53;99200.50;;;20.09;37.73
50057;BME280;36875;49.468;11.200;2022-12-18T02:45:20;99213.88;;;20.11;37.69
50057;BME280;36875;49.468;11.200;2022-12-18T02:47:48;99222.06;;;20.11;37.90
50057;BME280;36875;49.468;11.200;2022-12-18T02:50:19;99230.28;;;20.06;37.66
50057;BME280;36875;49.468;11.200;2022-12-18T02:52:55;99240.97;;;19.97;38.05
50057;BME280;36875;49.468;11.200;2022-12-18T02:55:34;99238.78;;;19.89;38.15
50057;BME280;36875;49.468;11.200;2022-12-18T02:58:14;99267.22;;;19.88;37.78
50057;BME280;36875;49.468;11.200;2022-12-18T03:00:45;99264.50;;;19.82;38.36
50057;BME280;36875;49.468;11.200;2022-12-18T03:03:18;99267.78;;;19.79;38.38
50057;BME280;36875;49.468;11.200;2022-12-18T03:05:47;99265.63;;;19.76;38.36
50057;BME280;36875;49.468;11.200;2022-12-18T03:08:21;99251.94;;;19.66;38.44
50057;BME280;36875;49.468;11.200;2022-12-18T03:10:49;99246.22;;;19.57;38.31
50057;BME280;36875;49.468;11.200;2022-12-18T03:13:20;99248.94;;;19.62;38.11
50057;BME280;36875;49.468;11.200;2022-12-18T03:15:52;99235.84;;;19.59;38.60
50057;BME280;36875;49.468;11.200;2022-12-18T03:18:24;99233.69;;;19.46;38.35
50057;BME280;36875;49.468;11.200;2022-12-18T03:20:53;99234.53;;;19.47;38.37
50057;BME280;36875;49.468;11.200;2022-12-18T03:23:23;99222.78;;;19.41;38.07
50057;BME280;36875;49.468;11.200;2022-12-18T03:25:52;99221.13;;;19.40;38.50
50057;BME280;36875;49.468;11.200;2022-12-18T03:28:22;99220.34;;;19.34;38.72
50057;BME280;36875;49.468;11.200;2022-12-18T03:30:52;99232.59;;;19.32;38.73
50057;BME280;36875;49.468;11.200;2022-12-18T03:33:25;99245.44;;;19.26;38.75
50057;BME280;36875;49.468;11.200;2022-12-18T03:35:51;99250.91;;;19.21;38.64
50057;BME280;36875;49.468;11.200;2022-12-18T03:38:17;99233.72;;;19.10;38.83
50057;BME280;36875;49.468;11.200;2022-12-18T03:40:51;99244.91;;;19.14;38.70
50057;BME280;36875;49.468;11.200;2022-12-18T03:43:22;99119.91;;;18.34;38.78
50057;BME280;36875;49.468;11.200;2022-12-18T03:45:55;99242.44;;;19.02;38.75
50057;BME280;36875;49.468;11.200;2022-12-18T03:48:28;99255.81;;;19.03;39.11
50057;BME280;36875;49.468;11.200;2022-12-18T03:50:57;99253.34;;;19.02;38.96
50057;BME280;36875;49.468;11.200;2022-12-18T03:53:31;99250.34;;;18.98;38.80
50057;BME280;36875;49.468;11.200;2022-12-18T03:56:01;99249.25;;;18.89;38.86
50057;BME280;36875;49.468;11.200;2022-12-18T03:58:29;99229.59;;;18.77;39.42
50057;BME280;36875;49.468;11.200;2022-12-18T04:01:01;99224.66;;;18.68;39.17
50057;BME280;36875;49.468;11.200;2022-12-18T04:03:28;99257.97;;;18.81;38.78
50057;BME280;36875;49.468;11.200;2022-12-18T04:05:55;99265.06;;;18.82;39.31
50057;BME280;36875;49.468;11.200;2022-12-18T04:08:22;99270.75;;;18.75;39.50
50057;BME280;36875;49.468;11.200;2022-12-18T04:10:48;99233.34;;;18.50;39.28
50057;BME280;36875;49.468;11.200;2022-12-18T04:13:21;99263.38;;;18.71;39.38
50057;BME280;36875;49.468;11.200;2022-12-18T04:15:47;99265.56;;;18.68;39.75
50057;BME280;36875;49.468;11.200;2022-12-18T04:18:14;99266.63;;;18.62;39.46
50057;BME280;36875;49.468;11.200;2022-12-18T04:20:39;99269.06;;;18.59;39.57
50057;BME280;36875;49.468;11.200;2022-12-18T04:23:05;99259.53;;;18.51;39.79
50057;BME280;36875;49.468;11.200;2022-12-18T04:25:30;99261.16;;;18.52;39.76
50057;BME280;36875;49.468;11.200;2022-12-18T04:27:56;99251.84;;;18.43;39.78
50057;BME280;36875;49.468;11.200;2022-12-18T04:30:21;99264.41;;;18.54;39.48
50057;BME280;36875;49.468;11.200;2022-12-18T04:32:48;99270.94;;;18.48;39.30
50057;BME280;36875;49.468;11.200;2022-12-18T04:35:15;99265.75;;;18.46;39.53
50057;BME280;36875;49.468;11.200;2022-12-18T04:37:40;99276.09;;;18.39;39.28
50057;BME280;36875;49.468;11.200;2022-12-18T04:40:06;99281.81;;;18.38;38.96
50057;BME280;36875;49.468;11.200;2022-12-18T04:42:32;99282.34;;;18.35;38.96
50057;BME280;36875;49.468;11.200;2022-12-18T04:44:58;99271.69;;;18.28;38.35
50057;BME280;36875;49.468;11.200;2022-12-18T04:47:23;99279.06;;;18.27;38.82
50057;BME280;36875;49.468;11.200;2022-12-18T04:49:48;99280.97;;;18.27;38.41
50057;BME280;36875;49.468;11.200;2022-12-18T04:52:15;99279.59;;;18.24;38.18
50057;BME280;36875;49.468;11.200;2022-12-18T04:54:41;99275.75;;;18.20;38.04
50057;BME280;36875;49.468;11.200;2022-12-18T04:57:06;99269.72;;;18.13;38.40
50057;BME280;36875;49.468;11.200;2022-12-18T04:59:32;99270.81;;;18.12;38.42
50057;BME280;36875;49.468;11.200;2022-12-18T05:01:57;99270.00;;;18.11;37.82
50057;BME280;36875;49.468;11.200;2022-12-18T05:04:23;99269.44;;;18.09;37.73
50057;BME280;36875;49.468;11.200;2022-12-18T05:06:48;99260.41;;;17.99;38.14
50057;BME280;36875;49.468;11.200;2022-12-18T05:09:15;99265.88;;;18.04;37.95
50057;BME280;36875;49.468;11.200;2022-12-18T05:11:41;99269.13;;;18.01;37.71
50057;BME280;36875;49.468;11.200;2022-12-18T05:14:06;99258.97;;;17.86;37.64
50057;BME280;36875;49.468;11.200;2022-12-18T05:16:32;99264.19;;;17.92;37.74
50057;BME280;36875;49.468;11.200;2022-12-18T05:18:57;99267.97;;;17.91;37.47
50057;BME280;36875;49.468;11.200;2022-12-18T05:21:23;99261.16;;;17.89;37.29
50057;BME280;36875;49.468;11.200;2022-12-18T05:23:48;99273.34;;;17.81;37.22
50057;BME280;36875;49.468;11.200;2022-12-18T05:26:17;99256.41;;;17.69;37.55
50057;BME280;36875;49.468;11.200;2022-12-18T05:28:43;99271.97;;;17.79;37.33
50057;BME280;36875;49.468;11.200;2022-12-18T05:31:09;99284.75;;;17.78;37.45
50057;BME280;36875;49.468;11.200;2022-12-18T05:33:35;99301.63;;;17.75;37.46
50057;BME280;36875;49.468;11.200;2022-12-18T05:36:02;99274.09;;;17.66;37.16
50057;BME280;36875;49.468;11.200;2022-12-18T05:38:29;99266.13;;;17.60;37.30
50057;BME280;36875;49.468;11.200;2022-12-18T05:40:55;99254.16;;;17.61;36.86
50057;BME280;36875;49.468;11.200;2022-12-18T05:43:23;99273.00;;;17.67;36.86
50057;BME280;36875;49.468;11.200;2022-12-18T05:45:50;99285.22;;;17.65;36.96
50057;BME280;36875;49.468;11.200;2022-12-18T05:48:16;99272.66;;;17.59;36.88
50057;BME280;36875;49.468;11.200;2022-12-18T05:50:43;99280.81;;;17.59;36.85
50057;BME280;36875;49.468;11.200;2022-12-18T05:53:11;99290.03;;;17.52;36.94
50057;BME280;36875;49.468;11.200;2022-12-18T05:55:38;99290.59;;;17.54;36.64
50057;BME280;36875;49.468;11.200;2022-12-18T05:58:05;99281.81;;;17.47;36.87
50057;BME280;36875;49.468;11.200;2022-12-18T06:00:34;99280.75;;;17.48;37.04
50057;BME280;36875;49.468;11.200;2022-12-18T06:03:00;99279.84;;;17.38;36.54
50057;BME280;36875;49.468;11.200;2022-12-18T06:05:26;99294.31;;;17.43;36.44
50057;BME280;36875;49.468;11.200;2022-12-18T06:07:52;99298.66;;;17.39;36.77
50057;BME280;36875;49.468;11.200;2022-12-18T06:10:17;99298.41;;;17.41;36.40
50057;BME280;36875;49.468;11.200;2022-12-18T06:12:43;99299.47;;;17.40;36.39
50057;BME280;36875;49.468;11.200;2022-12-18T06:15:11;99300.81;;;17.37;36.60
50057;BME280;36875;49.468;11.200;2022-12-18T06:17:38;99296.41;;;17.31;36.26
50057;BME280;36875;49.468;11.200;2022-12-18T06:20:05;99300.22;;;17.30;36.71
50057;BME280;36875;49.468;11.200;2022-12-18T06:22:32;99314.88;;;17.29;36.43
50057;BME280;36875;49.468;11.200;2022-12-18T06:24:57;99310.47;;;17.23;36.34
50057;BME280;36875;49.468;11.200;2022-12-18T06:27:24;99319.22;;;17.25;36.35
50057;BME280;36875;49.468;11.200;2022-12-18T06:29:50;99313.97;;;17.18;36.39
50057;BME280;36875;49.468;11.200;2022-12-18T06:32:15;99314.81;;;17.19;36.30
50057;BME280;36875;49.468;11.200;2022-12-18T06:34:42;99307.16;;;17.15;36.22
50057;BME280;36875;49.468;11.200;2022-12-18T06:37:08;99308.75;;;17.11;36.28
50057;BME280;36875;49.468;11.200;2022-12-18T06:39:33;99306.59;;;17.13;36.22
50057;BME280;36875;49.468;11.200;2022-12-18T06:41:59;99304.88;;;17.07;36.54
50057;BME280;36875;49.468;11.200;2022-12-18T06:44:24;99295.59;;;17.03;36.29
50057;BME280;36875;49.468;11.200;2022-12-18T06:46:49;99309.22;;;17.03;36.56
50057;BME280;36875;49.468;11.200;2022-12-18T06:49:15;99311.38;;;17.01;36.51
50057;BME280;36875;49.468;11.200;2022-12-18T06:51:42;99311.84;;;16.93;36.11
50057;BME280;36875;49.468;11.200;2022-12-18T06:54:08;99319.72;;;16.94;36.18
50057;BME280;36875;49.468;11.200;2022-12-18T06:56:34;99315.00;;;16.85;35.84
50057;BME280;36875;49.468;11.200;2022-12-18T06:58:59;99326.69;;;16.85;35.97
50057;BME280;36875;49.468;11.200;2022-12-18T07:01:25;99328.03;;;16.83;35.71
50057;BME280;36875;49.468;11.200;2022-12-18T07:03:52;99330.41;;;16.79;35.63
50057;BME280;36875;49.468;11.200;2022-12-18T07:06:19;99328.19;;;16.76;35.61
50057;BME280;36875;49.468;11.200;2022-12-18T07:08:48;99315.38;;;16.71;35.88
50057;BME280;36875;49.468;11.200;2022-12-18T07:11:14;99315.38;;;16.71;35.57
50057;BME280;36875;49.468;11.200;2022-12-18T07:13:39;99322.97;;;16.69;35.67
50057;BME280;36875;49.468;11.200;2022-12-18T07:16:07;99326.19;;;16.66;35.36
50057;BME280;36875;49.468;11.200;2022-12-18T07:18:33;99328.34;;;16.64;35.49
50057;BME280;36875;49.468;11.200;2022-12-18T07:21:02;99326.97;;;16.62;35.42
50057;BME280;36875;49.468;11.200;2022-12-18T07:23:28;99319.25;;;16.53;35.16
50057;BME280;36875;49.468;11.200;2022-12-18T07:25:55;99321.47;;;16.56;35.52
50057;BME280;36875;49.468;11.200;2022-12-18T07:28:21;99325.25;;;16.55;35.34
50057;BME280;36875;49.468;11.200;2022-12-18T07:30:46;99333.22;;;16.62;35.30
50057;BME280;36875;49.468;11.200;2022-12-18T07:33:12;99320.69;;;16.61;35.56
50057;BME280;36875;49.468;11.200;2022-12-18T07:35:37;99321.56;;;16.67;35.48
50057;BME280;36875;49.468;11.200;2022-12-18T07:38:03;99299.47;;;16.58;35.93
50057;BME280;36875;49.468;11.200;2022-12-18T07:40:28;99319.72;;;16.72;35.58
50057;BME280;36875;49.468;11.200;2022-12-18T07:42:55;99328.41;;;16.69;35.69
50057;BME280;36875;49.468;11.200;2022-12-18T07:45:20;99336.63;;;16.74;35.60
50057;BME280;36875;49.468;11.200;2022-12-18T07:47:46;99340.72;;;16.77;36.07
50057;BME280;36875;49.468;11.200;2022-12-18T07:50:11;99341.13;;;16.86;35.68
50057;BME280;36875;49.468;11.200;2022-12-18T07:52:38;99321.75;;;16.82;35.54
50057;BME280;36875;49.468;11.200;2022-12-18T07:55:04;99341.72;;;17.15;35.32
50057;BME280;36875;49.468;11.200;2022-12-18T07:57:30;99334.94;;;17.50;35.05
50057;BME280;36875;49.468;11.200;2022-12-18T07:59:57;99359.72;;;17.86;35.11
50057;BME280;36875;49.468;11.200;2022-12-18T08:02:22;99357.81;;;17.86;34.89
50057;BME280;36875;49.468;11.200;2022-12-18T08:04:48;99354.25;;;18.81;33.89
50057;BME280;36875;49.468;11.200;2022-12-18T08:07:13;99352.94;;;19.15;33.22
50057;BME280;36875;49.468;11.200;2022-12-18T08:09:39;99347.81;;;19.44;33.16
50057;BME280;36875;49.468;11.200;2022-12-18T08:12:05;99344.25;;;19.69;33.04
50057;BME280;36875;49.468;11.200;2022-12-18T08:14:30;99336.09;;;19.74;32.86
50057;BME280;36875;49.468;11.200;2022-12-18T08:16:57;99345.63;;;19.87;32.09
50057;BME280;36875;49.468;11.200;2022-12-18T08:19:23;99355.75;;;19.76;32.22
50057;BME280;36875;49.468;11.200;2022-12-18T08:21:48;99351.63;;;19.69;31.59
50057;BME280;36875;49.468;11.200;2022-12-18T08:24:14;99357.06;;;20.15;31.56
50057;BME280;36875;49.468;11.200;2022-12-18T08:26:39;99337.97;;;19.89;31.87
50057;BME280;36875;49.468;11.200;2022-12-18T08:29:05;99357.59;;;20.22;31.01
50057;BME280;36875;49.468;11.200;2022-12-18T08:31:30;99352.06;;;20.42;30.63
50057;BME280;36875;49.468;11.200;2022-12-18T08:33:57;99365.78;;;20.22;31.52
50057;BME280;36875;49.468;11.200;2022-12-18T08:36:24;99362.78;;;20.18;31.32
50057;BME280;36875;49.468;11.200;2022-12-18T08:38:49;99348.00;;;20.19;31.23
50057;BME280;36875;49.468;11.200;2022-12-18T08:41:17;99346.84;;;20.46;30.75
50057;BME280;36875;49.468;11.200;2022-12-18T08:43:42;99339.25;;;20.33;31.23
50057;BME280;36875;49.468;11.200;2022-12-18T08:46:32;99367.41;;;20.33;31.27
50057;BME280;36875;49.468;11.200;2022-12-18T08:48:59;99349.34;;;20.27;31.43
50057;BME280;36875;49.468;11.200;2022-12-18T08:51:25;99369.25;;;20.53;31.20
50057;BME280;36875;49.468;11.200;2022-12-18T08:53:50;99360.00;;;20.39;31.57
50057;BME280;36875;49.468;11.200;2022-12-18T08:56:16;99344.13;;;20.46;31.28
50057;BME280;36875;49.468;11.200;2022-12-18T08:58:42;99364.88;;;20.52;31.13
50057;BME280;36875;49.468;11.200;2022-12-18T09:01:09;99350.94;;;20.49;31.21
50057;BME280;36875;49.468;11.200;2022-12-18T09:03:35;99340.59;;;20.35;31.51
50057;BME280;36875;49.468;11.200;2022-12-18T09:06:03;99360.56;;;20.31;31.22
50057;BME280;36875;49.468;11.200;2022-12-18T09:08:29;99355.63;;;20.38;30.98
50057;BME280;36875;49.468;11.200;2022-12-18T09:10:55;99344.22;;;20.15;31.03
50057;BME280;36875;49.468;11.200;2022-12-18T09:13:20;99342.00;;;20.17;31.33
50057;BME280;36875;49.468;11.200;2022-12-18T09:15:47;99349.06;;;20.39;31.26
50057;BME280;36875;49.468;11.200;2022-12-18T09:18:15;99356.91;;;20.66;30.62
50057;BME280;36875;49.468;11.200;2022-12-18T09:20:41;99355.69;;;20.93;30.24
50057;BME280;36875;49.468;11.200;2022-12-18T09:23:09;99360.16;;;21.23;29.95
50057;BME280;36875;49.468;11.200;2022-12-18T09:25:35;99350.16;;;21.48;29.82
50057;BME280;36875;49.468;11.200;2022-12-18T09:28:01;99358.34;;;21.43;30.60
50057;BME280;36875;49.468;11.200;2022-12-18T09:30:27;99340.03;;;21.78;30.24
50057;BME280;36875;49.468;11.200;2022-12-18T09:32:52;99353.22;;;22.29;29.74
50057;BME280;36875;49.468;11.200;2022-12-18T09:35:18;99360.84;;;22.37;29.72
50057;BME280;36875;49.468;11.200;2022-12-18T09:37:43;99340.88;;;22.56;28.70
50057;BME280;36875;49.468;11.200;2022-12-18T09:40:14;99334.88;;;22.73;28.73
50057;BME280;36875;49.468;11.200;2022-12-18T09:42:39;99324.97;;;22.96;28.81
50057;BME280;36875;49.468;11.200;2022-12-18T09:45:12;99321.31;;;23.19;28.55
50057;BME280;36875;49.468;11.200;2022-12-18T09:47:40;99320.47;;;23.05;28.77
50057;BME280;36875;49.468;11.200;2022-12-18T09:50:28;99319.63;;;23.23;28.89
50057;BME280;36875;49.468;11.200;2022-12-18T09:52:57;99316.53;;;23.11;29.30
50057;BME280;36875;49.468;11.200;2022-12-18T09:55:27;99302.19;;;23.47;28.60
50057;BME280;36875;49.468;11.200;2022-12-18T09:57:57;99292.50;;;23.36;28.94
50057;BME280;36875;49.468;11.200;2022-12-18T10:00:25;99318.44;;;23.62;28.78
50057;BME280;36875;49.468;11.200;2022-12-18T10:02:51;99316.22;;;23.64;28.89
50057;BME280;36875;49.468;11.200;2022-12-18T10:05:24;99321.22;;;23.76;28.79
50057;BME280;36875;49.468;11.200;2022-12-18T10:08:00;99318.47;;;23.76;29.05
50057;BME280;36875;49.468;11.200;2022-12-18T10:10:33;99321.09;;;23.35;29.72
50057;BME280;36875;49.468;11.200;2022-12-18T10:13:07;99321.22;;;23.43;29.89
50057;BME280;36875;49.468;11.200;2022-12-18T10:15:38;99314.78;;;23.67;29.42
50057;BME280;36875;49.468;11.200;2022-12-18T10:18:16;99314.25;;;23.51;29.92
50057;BME280;36875;49.468;11.200;2022-12-18T10:20:47;99290.06;;;23.34;30.21
50057;BME280;36875;49.468;11.200;2022-12-18T10:23:20;99301.97;;;23.43;30.18
50057;BME280;36875;49.468;11.200;2022-12-18T10:25:53;99287.00;;;23.36;30.33
50057;BME280;36875;49.468;11.200;2022-12-18T10:28:21;99301.38;;;23.46;30.37
50057;BME280;36875;49.468;11.200;2022-12-18T10:30:48;99287.13;;;23.44;30.32
50057;BME280;36875;49.468;11.200;2022-12-18T10:33:16;99291.53;;;23.45;30.45
50057;BME280;36875;49.468;11.200;2022-12-18T10:35:43;99287.94;;;23.45;30.53
50057;BME280;36875;49.468;11.200;2022-12-18T10:38:22;99274.22;;;23.45;30.68
50057;BME280;36875;49.468;11.200;2022-12-18T10:40:51;99287.44;;;23.43;30.67
50057;BME280;36875;49.468;11.200;2022-12-18T10:43:23;99285.81;;;23.42;30.86
50057;BME280;36875;49.468;11.200;2022-12-18T10:46:04;99290.47;;;23.41;31.13
50057;BME280;36875;49.468;11.200;2022-12-18T10:48:31;99281.47;;;23.22;31.22
50057;BME280;36875;49.468;11.200;2022-12-18T10:50:59;99300.50;;;23.18;31.19
50057;BME280;36875;49.468;11.200;2022-12-18T10:53:26;99313.22;;;23.28;31.56
50057;BME280;36875;49.468;11.200;2022-12-18T10:55:56;99317.03;;;23.13;31.54
50057;BME280;36875;49.468;11.200;2022-12-18T10:58:25;99318.75;;;23.09;31.89
50057;BME280;36875;49.468;11.200;2022-12-18T11:01:03;99321.72;;;23.13;31.92
50057;BME280;36875;49.468;11.200;2022-12-18T11:03:31;99323.47;;;23.03;32.04
50057;BME280;36875;49.468;11.200;2022-12-18T11:06:02;99320.22;;;23.01;31.89
50057;BME280;36875;49.468;11.200;2022-12-18T11:08:28;99307.09;;;22.79;32.66
50057;BME280;36875;49.468;11.200;2022-12-18T11:10:55;99318.94;;;22.94;32.38
50057;BME280;36875;49.468;11.200;2022-12-18T11:13:23;99270.50;;;22.65;32.28
50057;BME280;36875;49.468;11.200;2022-12-18T11:15:49;99311.59;;;22.89;32.45
50057;BME280;36875;49.468;11.200;2022-12-18T11:18:17;99316.19;;;22.94;32.28
50057;BME280;36875;49.468;11.200;2022-12-18T11:20:50;99304.75;;;22.86;32.80
50057;BME280;36875;49.468;11.200;2022-12-18T11:23:17;99300.03;;;22.92;32.72
50057;BME280;36875;49.468;11.200;2022-12-18T11:25:51;99284.28;;;22.79;32.97
50057;BME280;36875;49.468;11.200;2022-12-18T11:28:28;99285.53;;;22.86;32.69
50057;BME280;36875;49.468;11.200;2022-12-18T11:31:15;99301.44;;;22.89;33.01
50057;BME280;36875;49.468;11.200;2022-12-18T11:33:46;99296.69;;;22.76;33.07
50057;BME280;36875;49.468;11.200;2022-12-18T11:36:13;99304.41;;;22.74;33.31
50057;BME280;36875;49.468;11.200;2022-12-18T11:38:40;99301.03;;;22.77;33.42
50057;BME280;36875;49.468;11.200;2022-12-18T11:41:15;99284.16;;;22.70;33.50
50057;BME280;36875;49.468;11.200;2022-12-18T11:43:50;99290.63;;;22.79;33.58
50057;BME280;36875;49.468;11.200;2022-12-18T11:46:24;99286.06;;;22.69;33.90
50057;BME280;36875;49.468;11.200;2022-12-18T11:48:54;99277.59;;;22.66;33.77
50057;BME280;36875;49.468;11.200;2022-12-18T11:51:28;99269.75;;;22.59;34.32
50057;BME280;36875;49.468;11.200;2022-12-18T11:53:55;99265.09;;;22.60;34.18
50057;BME280;36875;49.468;11.200;2022-12-18T11:56:30;99264.56;;;22.58;34.20
50057;BME280;36875;49.468;11.200;2022-12-18T11:59:07;99243.13;;;22.60;33.97
50057;BME280;36875;49.468;11.200;2022-12-18T12:01:40;99239.94;;;22.52;34.28
50057;BME280;36875;49.468;11.200;2022-12-18T12:04:33;99244.84;;;22.56;34.22
50057;BME280;36875;49.468;11.200;2022-12-18T12:07:12;99248.28;;;22.42;34.50
50057;BME280;36875;49.468;11.200;2022-12-18T12:09:47;99246.28;;;22.29;34.98
50057;BME280;36875;49.468;11.200;2022-12-18T12:12:28;99209.84;;;22.04;34.99
50057;BME280;36875;49.468;11.200;2022-12-18T12:15:20;99251.66;;;22.15;35.07
50057;BME280;36875;49.468;11.200;2022-12-18T12:20:20;99249.53;;;22.07;34.99
50057;BME280;36875;49.468;11.200;2022-12-18T12:22:53;99244.78;;;21.93;35.37
50057;BME280;36875;49.468;11.200;2022-12-18T12:25:31;99241.00;;;21.89;35.66
50057;BME280;36875;49.468;11.200;2022-12-18T12:28:09;99236.31;;;21.90;35.34
50057;BME280;36875;49.468;11.200;2022-12-18T12:30:48;99237.50;;;21.84;35.65
50057;BME280;36875;49.468;11.200;2022-12-18T12:33:26;99243.53;;;21.81;35.57
50057;BME280;36875;49.468;11.200;2022-12-18T12:36:00;99243.31;;;21.77;35.65
50057;BME280;36875;49.468;11.200;2022-12-18T12:38:32;99238.63;;;21.78;35.82
50057;BME280;36875;49.468;11.200;2022-12-18T12:41:01;99252.38;;;21.72;35.46
50057;BME280;36875;49.468;11.200;2022-12-18T12:43:34;99247.25;;;21.66;35.91
50057;BME280;36875;49.468;11.200;2022-12-18T12:46:07;99226.63;;;21.49;35.98
50057;BME280;36875;49.468;11.200;2022-12-18T12:48:41;99238.84;;;21.57;36.13
50057;BME280;36875;49.468;11.200;2022-12-18T12:51:12;99244.66;;;21.50;36.08
50057;BME280;36875;49.468;11.200;2022-12-18T12:53:39;99220.41;;;21.33;36.03
50057;BME280;36875;49.468;11.200;2022-12-18T12:56:08;99244.44;;;21.47;36.30
50057;BME280;36875;49.468;11.200;2022-12-18T12:58:41;99245.31;;;21.37;36.45
50057;BME280;36875;49.468;11.200;2022-12-18T13:01:19;99237.56;;;21.44;36.12
50057;BME280;36875;49.468;11.200;2022-12-18T13:03:54;99234.06;;;21.38;36.66